Terminal Aerodrome Forecast
Issued by NWS

Home | Current Version | Previous Version | Text Only | Print | Product List | Glossary On
Versions: 1 2 3 4 5 6 7 8 9 10 11 12 13 14 15 16 17 18 19 20 21 22 23 24
432
FTUS41 KGYX 291720
TAFRKD
TAF
KRKD 291720Z 2918/3018 03005KT P6SM BKN250
     FM292200 VRB03KT P6SM SCT250
     FM300200 00000KT 1/4SM FG BKN002
     FM301200 VRB05KT P6SM SCT250
      AMD LTD TO CLD VIS AND WIND=

USA.gov is the U.S. government's official web portal to all federal, state and local government web resources and services.